Time;durP1;ratioP1;P1;durP2;ratioP2;P2;SDS_P1;SDS_P2;PMS_P1;PMS_P2;Temp;Humidity;BMP_temperature;BMP_pressure;BME280_temperature;BME280_humidity;BME280_pressure;Samples;Min_cycle;Max_cycle;Signal;HPM_P1;HPM_P2
2021/07/24 00:01:29;;;;;;;11.17;8.30;;;;;;;;;;5003753;28;20537;-88
2021/07/24 00:04:33;;;;;;;11.73;8.53;;;;;;;;;;5015054;28;20197;-88
2021/07/24 00:07:37;;;;;;;13.03;8.17;;;;;;;;;;4992144;28;20225;-89
2021/07/24 00:10:41;;;;;;;9.60;8.03;;;;;;;;;;4999781;28;20196;-88
2021/07/24 00:13:45;;;;;;;11.57;7.80;;;;;;;;;;5011578;28;20196;-88
2021/07/24 00:16:50;;;;;;;10.63;7.33;;;;;;;;;;5022984;28;20212;-88
2021/07/24 00:19:54;;;;;;;9.50;7.80;;;;;;;;;;5011276;28;20193;-89
2021/07/24 00:23:07;;;;;;;10.67;7.70;;;;;;;;;;5017096;28;20657;-88
2021/07/24 00:26:12;;;;;;;12.57;8.40;;;;;;;;;;5002760;28;20229;-88
2021/07/24 00:29:16;;;;;;;10.60;8.17;;;;;;;;;;4993069;28;20194;-88
2021/07/24 00:32:20;;;;;;;13.47;8.07;;;;;;;;;;5011029;28;20184;-87
2021/07/24 00:35:24;;;;;;;12.40;8.03;;;;;;;;;;4991726;28;20189;-87
2021/07/24 00:38:33;;;;;;;9.43;7.27;;;;;;;;;;5010236;28;20189;-88
2021/07/24 00:42:15;;;;;;;11.60;8.87;;;;;;;;;;4991963;28;20533;-88
2021/07/24 00:45:20;;;;;;;10.57;7.43;;;;;;;;;;5010049;28;20200;-88
2021/07/24 00:48:25;;;;;;;12.23;8.50;;;;;;;;;;5004392;28;20189;-88
2021/07/24 00:51:48;;;;;;;13.73;8.33;;;;;;;;;;4993973;28;20178;-88
2021/07/24 00:54:53;;;;;;;11.93;7.83;;;;;;;;;;4991407;28;20193;-88
2021/07/24 00:57:57;;;;;;;19.13;8.70;;;;;;;;;;5002405;28;20193;-87
2021/07/24 01:01:03;;;;;;;14.70;8.43;;;;;;;;;;5007443;28;20200;-88
2021/07/24 01:04:07;;;;;;;14.07;8.27;;;;;;;;;;5007411;28;20201;-88
2021/07/24 01:07:14;;;;;;;14.17;8.70;;;;;;;;;;5018947;28;20319;-88
2021/07/24 01:10:20;;;;;;;12.60;7.73;;;;;;;;;;5020669;28;20185;-88
2021/07/24 01:13:25;;;;;;;12.43;9.03;;;;;;;;;;5022330;28;20189;-88
2021/07/24 01:16:29;;;;;;;12.57;7.77;;;;;;;;;;4991200;28;20213;-88
2021/07/24 01:19:43;;;;;;;11.13;8.03;;;;;;;;;;4992627;28;20545;-88
2021/07/24 01:22:49;;;;;;;9.43;8.40;;;;;;;;;;5007937;28;20188;-88
2021/07/24 01:25:53;;;;;;;13.57;8.50;;;;;;;;;;4999227;28;20577;-88
2021/07/24 01:29:05;;;;;;;11.00;8.37;;;;;;;;;;4991566;28;20177;-88
2021/07/24 01:32:10;;;;;;;10.57;8.57;;;;;;;;;;4990952;28;20194;-86
2021/07/24 01:35:15;;;;;;;9.87;7.93;;;;;;;;;;4990821;28;20660;-88
2021/07/24 01:38:21;;;;;;;13.20;9.10;;;;;;;;;;5044289;23;20235;-84
2021/07/24 01:41:31;;;;;;;12.03;9.20;;;;;;;;;;5043213;28;20196;-85
2021/07/24 01:44:36;;;;;;;10.80;8.03;;;;;;;;;;5042283;28;20195;-85
2021/07/24 01:47:41;;;;;;;11.33;8.43;;;;;;;;;;5044899;28;20232;-84
2021/07/24 01:54:24;;;;;;;9.80;8.27;;;;;;;;;;5003366;28;20189;-84
2021/07/24 01:57:33;;;;;;;12.93;9.13;;;;;;;;;;5014552;28;20217;-84
2021/07/24 02:00:43;;;;;;;12.73;8.60;;;;;;;;;;5023274;28;20189;-85
2021/07/24 02:04:10;;;;;;;12.03;8.80;;;;;;;;;;5022552;28;20192;-85
2021/07/24 02:07:21;;;;;;;11.57;8.17;;;;;;;;;;5033820;28;20224;-85
2021/07/24 02:10:35;;;;;;;11.60;8.33;;;;;;;;;;4993499;28;20190;-84
2021/07/24 02:13:41;;;;;;;12.77;8.53;;;;;;;;;;5003039;28;20238;-84
2021/07/24 02:16:47;;;;;;;11.53;8.47;;;;;;;;;;5034450;28;20548;-84
2021/07/24 02:19:58;;;;;;;11.83;8.97;;;;;;;;;;4993901;28;20206;-85
2021/07/24 02:23:02;;;;;;;15.43;9.23;;;;;;;;;;5019803;28;20201;-85
2021/07/24 02:26:11;;;;;;;12.83;8.93;;;;;;;;;;4992299;28;20186;-84
2021/07/24 02:29:16;;;;;;;10.27;8.57;;;;;;;;;;5017434;28;20189;-85
2021/07/24 02:32:22;;;;;;;10.27;8.37;;;;;;;;;;5034797;28;20201;-85
2021/07/24 02:35:27;;;;;;;12.40;7.77;;;;;;;;;;5025185;28;20193;-85
2021/07/24 02:38:50;;;;;;;11.00;9.20;;;;;;;;;;5023817;28;20194;-85
2021/07/24 02:41:55;;;;;;;14.77;8.87;;;;;;;;;;5002977;28;20182;-85
2021/07/24 02:45:00;;;;;;;13.27;7.80;;;;;;;;;;4992256;28;20189;-84
2021/07/24 02:48:05;;;;;;;10.27;8.10;;;;;;;;;;4996984;28;20702;-85
2021/07/24 02:51:17;;;;;;;10.60;7.87;;;;;;;;;;5036164;28;20192;-85
2021/07/24 02:54:25;;;;;;;10.27;7.80;;;;;;;;;;5015179;28;20177;-84
2021/07/24 02:57:35;;;;;;;13.90;8.43;;;;;;;;;;5016089;28;20220;-85
2021/07/24 03:00:39;;;;;;;10.70;8.53;;;;;;;;;;5031467;28;20189;-84
2021/07/24 03:03:43;;;;;;;12.03;8.80;;;;;;;;;;5009751;28;20544;-85
2021/07/24 03:06:48;;;;;;;13.70;8.90;;;;;;;;;;5006257;28;20703;-85
2021/07/24 03:09:52;;;;;;;10.70;8.73;;;;;;;;;;5012901;28;20276;-85
2021/07/24 03:12:56;;;;;;;13.00;8.73;;;;;;;;;;5025913;28;20517;-84
2021/07/24 03:16:00;;;;;;;12.00;9.07;;;;;;;;;;5037748;28;20185;-84
2021/07/24 03:19:04;;;;;;;12.77;9.30;;;;;;;;;;5046987;28;20193;-84
2021/07/24 03:22:08;;;;;;;12.27;9.07;;;;;;;;;;5014413;28;20521;-84
2021/07/24 03:25:12;;;;;;;10.50;8.30;;;;;;;;;;5037443;28;20180;-85
2021/07/24 03:28:16;;;;;;;14.83;9.10;;;;;;;;;;5018774;28;20225;-84
2021/07/24 03:31:20;;;;;;;18.97;9.87;;;;;;;;;;4994956;28;20182;-84
2021/07/24 03:34:25;;;;;;;15.60;8.93;;;;;;;;;;5019293;28;20188;-84
2021/07/24 03:37:29;;;;;;;14.70;9.43;;;;;;;;;;5028190;28;20221;-84
2021/07/24 03:40:33;;;;;;;13.93;9.17;;;;;;;;;;5003553;28;20181;-84
2021/07/24 03:43:37;;;;;;;14.33;9.13;;;;;;;;;;5004935;28;20193;-85
2021/07/24 03:46:41;;;;;;;12.30;8.80;;;;;;;;;;5002262;28;20220;-85
2021/07/24 03:49:46;;;;;;;16.83;9.77;;;;;;;;;;5015760;28;20201;-84
2021/07/24 03:52:50;;;;;;;12.63;9.47;;;;;;;;;;5001740;28;20205;-84
2021/07/24 03:55:54;;;;;;;14.27;8.63;;;;;;;;;;5034906;28;20188;-84
2021/07/24 03:58:59;;;;;;;13.10;9.40;;;;;;;;;;5003604;28;20178;-84
2021/07/24 04:02:05;;;;;;;12.80;9.17;;;;;;;;;;5005029;28;20535;-85
2021/07/24 04:05:10;;;;;;;12.30;9.20;;;;;;;;;;5031598;28;20647;-84
2021/07/24 04:08:15;;;;;;;11.93;9.70;;;;;;;;;;4996136;28;20236;-84
2021/07/24 04:11:20;;;;;;;15.43;9.30;;;;;;;;;;5023913;28;20204;-84
2021/07/24 04:14:25;;;;;;;11.60;9.20;;;;;;;;;;5016038;28;20194;-84
2021/07/24 04:17:29;;;;;;;12.07;9.30;;;;;;;;;;5015522;28;20225;-84
2021/07/24 04:20:38;;;;;;;16.43;10.03;;;;;;;;;;5016141;28;20517;-84
2021/07/24 04:23:43;;;;;;;12.23;8.93;;;;;;;;;;5004657;28;20188;-84
2021/07/24 04:26:49;;;;;;;19.10;10.17;;;;;;;;;;5034420;28;20220;-84
2021/07/24 04:29:53;;;;;;;22.40;10.00;;;;;;;;;;5035475;28;20187;-85
2021/07/24 04:32:57;;;;;;;14.60;9.27;;;;;;;;;;5036215;28;20199;-84
2021/07/24 04:36:02;;;;;;;13.13;9.63;;;;;;;;;;5036010;28;20181;-84
2021/07/24 04:39:06;;;;;;;13.67;10.23;;;;;;;;;;5010403;28;20639;-85
2021/07/24 04:42:10;;;;;;;11.73;8.60;;;;;;;;;;5035886;28;20180;-84
2021/07/24 04:45:15;;;;;;;15.20;10.13;;;;;;;;;;5035908;28;20196;-85
2021/07/24 04:48:19;;;;;;;12.50;9.40;;;;;;;;;;5008092;28;20240;-85
2021/07/24 04:51:24;;;;;;;15.07;9.63;;;;;;;;;;4993646;28;20197;-84
2021/07/24 04:54:29;;;;;;;10.30;9.10;;;;;;;;;;5010433;28;20185;-84
2021/07/24 04:57:34;;;;;;;14.87;9.70;;;;;;;;;;5004394;28;20225;-84
2021/07/24 05:00:42;;;;;;;12.73;9.30;;;;;;;;;;5010059;28;20644;-84
2021/07/24 05:03:47;;;;;;;14.87;9.80;;;;;;;;;;4994083;28;20186;-84
2021/07/24 05:06:51;;;;;;;21.27;10.03;;;;;;;;;;5017328;28;20226;-85
2021/07/24 05:09:55;;;;;;;15.70;9.63;;;;;;;;;;5012845;28;20208;-85
2021/07/24 05:13:00;;;;;;;14.17;10.23;;;;;;;;;;5024026;28;20663;-84
2021/07/24 05:16:04;;;;;;;14.50;11.07;;;;;;;;;;5035220;28;20187;-85
2021/07/24 05:19:09;;;;;;;11.63;9.47;;;;;;;;;;5018889;28;20184;-86
2021/07/24 05:22:14;;;;;;;12.70;9.67;;;;;;;;;;5017702;28;20182;-87
2021/07/24 05:25:18;;;;;;;11.57;9.60;;;;;;;;;;5002724;28;20185;-86
2021/07/24 05:28:23;;;;;;;12.67;9.43;;;;;;;;;;5006834;28;20228;-87
2021/07/24 05:31:29;;;;;;;12.57;9.77;;;;;;;;;;5002543;28;20643;-86
2021/07/24 05:34:33;;;;;;;15.43;9.33;;;;;;;;;;4991075;28;20197;-86
2021/07/24 05:37:38;;;;;;;16.03;9.73;;;;;;;;;;4995272;28;20220;-86
2021/07/24 05:40:42;;;;;;;11.70;8.97;;;;;;;;;;5010651;28;20200;-87
2021/07/24 05:43:46;;;;;;;13.07;9.33;;;;;;;;;;4999478;28;20196;-87
2021/07/24 05:46:50;;;;;;;14.77;9.43;;;;;;;;;;5002039;28;20221;-87
2021/07/24 05:49:54;;;;;;;11.90;8.83;;;;;;;;;;5013635;28;20197;-87
2021/07/24 05:52:58;;;;;;;11.83;8.83;;;;;;;;;;5019398;28;20197;-87
2021/07/24 05:56:02;;;;;;;11.80;8.97;;;;;;;;;;5131791;27;20314;-78
2021/07/24 05:59:06;;;;;;;13.00;9.07;;;;;;;;;;5115476;28;20188;-77
2021/07/24 06:02:14;;;;;;;11.63;8.97;;;;;;;;;;5100094;28;20221;-77
2021/07/24 06:05:18;;;;;;;10.40;8.73;;;;;;;;;;5097262;28;20186;-78
2021/07/24 06:08:22;;;;;;;10.97;8.43;;;;;;;;;;5100533;28;20186;-78
2021/07/24 06:11:26;;;;;;;17.23;9.10;;;;;;;;;;5112672;28;20222;-77
2021/07/24 06:14:31;;;;;;;13.03;9.43;;;;;;;;;;5111382;28;20213;-78
2021/07/24 06:17:35;;;;;;;12.50;8.83;;;;;;;;;;5086978;28;20201;-77
2021/07/24 06:20:39;;;;;;;13.13;9.00;;;;;;;;;;5111716;28;20190;-78
2021/07/24 06:23:44;;;;;;;13.60;8.77;;;;;;;;;;5110672;28;20190;-77
2021/07/24 06:26:48;;;;;;;11.90;8.73;;;;;;;;;;5111441;28;20179;-82
2021/07/24 06:29:52;;;;;;;11.50;9.00;;;;;;;;;;5086831;28;20190;-77
2021/07/24 06:32:57;;;;;;;10.60;8.73;;;;;;;;;;5111097;28;20225;-77
2021/07/24 06:36:01;;;;;;;12.03;9.13;;;;;;;;;;5112350;28;20207;-77
2021/07/24 06:39:05;;;;;;;10.07;7.80;;;;;;;;;;5110811;28;20182;-77
2021/07/24 06:42:09;;;;;;;13.13;9.27;;;;;;;;;;5110840;28;20210;-77
2021/07/24 06:45:13;;;;;;;11.30;9.00;;;;;;;;;;5106791;28;20182;-78
2021/07/24 06:48:17;;;;;;;14.33;8.80;;;;;;;;;;5098492;28;20186;-78
2021/07/24 06:51:21;;;;;;;11.67;9.20;;;;;;;;;;5100753;28;20538;-77
2021/07/24 06:54:25;;;;;;;11.43;8.70;;;;;;;;;;5112318;28;20230;-77
2021/07/24 06:57:31;;;;;;;10.70;8.57;;;;;;;;;;5110600;28;20617;-77
2021/07/24 07:00:35;;;;;;;10.57;9.17;;;;;;;;;;5111104;28;20202;-77
2021/07/24 07:03:39;;;;;;;11.43;9.07;;;;;;;;;;5098943;28;20182;-77
2021/07/24 07:06:43;;;;;;;14.00;9.40;;;;;;;;;;5101435;28;20208;-77
2021/07/24 07:09:47;;;;;;;11.90;9.43;;;;;;;;;;5096116;28;20182;-77
2021/07/24 07:12:52;;;;;;;11.27;9.13;;;;;;;;;;5098558;28;20218;-78
2021/07/24 07:15:56;;;;;;;15.93;8.90;;;;;;;;;;5096434;28;20203;-79
2021/07/24 07:19:02;;;;;;;15.87;9.90;;;;;;;;;;5085772;28;20179;-77
2021/07/24 07:22:06;;;;;;;12.83;8.73;;;;;;;;;;5097756;28;20222;-77
2021/07/24 07:25:11;;;;;;;12.40;9.20;;;;;;;;;;5097777;28;20530;-78
2021/07/24 07:28:15;;;;;;;14.10;9.10;;;;;;;;;;5085400;28;20183;-78
2021/07/24 07:31:19;;;;;;;9.43;8.40;;;;;;;;;;5097224;28;20645;-77
2021/07/24 07:34:23;;;;;;;10.20;8.67;;;;;;;;;;5097877;28;20203;-78
2021/07/24 07:37:28;;;;;;;11.73;8.00;;;;;;;;;;5089679;22;20230;-73
2021/07/24 07:40:36;;;;;;;11.90;8.60;;;;;;;;;;5068228;28;20194;-73
2021/07/24 07:43:40;;;;;;;9.93;8.83;;;;;;;;;;5034766;28;20202;-75
2021/07/24 07:46:45;;;;;;;11.93;7.87;;;;;;;;;;5037454;28;20203;-74
2021/07/24 07:49:49;;;;;;;13.73;8.63;;;;;;;;;;5052551;28;20197;-74
2021/07/24 07:52:53;;;;;;;10.40;8.20;;;;;;;;;;5053834;28;20691;-74
2021/07/24 07:55:58;;;;;;;11.47;8.33;;;;;;;;;;5055269;28;20210;-75
2021/07/24 07:59:02;;;;;;;9.67;8.67;;;;;;;;;;5047046;28;20188;-74
2021/07/24 08:02:06;;;;;;;13.73;8.67;;;;;;;;;;5046092;28;20229;-73
2021/07/24 08:05:10;;;;;;;10.30;8.90;;;;;;;;;;5034392;28;20181;-73
2021/07/24 08:08:16;;;;;;;11.18;8.65;;;;;;;;;;5034241;28;20184;-74
2021/07/24 08:11:20;;;;;;;11.50;8.90;;;;;;;;;;5043776;28;20189;-74
2021/07/24 08:14:24;;;;;;;10.68;8.57;;;;;;;;;;5053866;28;20188;-73
2021/07/24 08:17:28;;;;;;;13.05;9.70;;;;;;;;;;5052121;28;20195;-73
2021/07/24 08:20:34;;;;;;;10.95;8.25;;;;;;;;;;5051553;28;20177;-73
2021/07/24 08:23:38;;;;;;;12.25;8.55;;;;;;;;;;5034926;28;20179;-73
2021/07/24 08:26:42;;;;;;;20.17;10.00;;;;;;;;;;5035257;28;20176;-73
2021/07/24 08:29:46;;;;;;;13.27;8.50;;;;;;;;;;5038045;28;20201;-73
2021/07/24 08:32:49;;;;;;;11.85;8.93;;;;;;;;;;5039120;28;20217;-73
2021/07/24 08:35:55;;;;;;;11.35;8.18;;;;;;;;;;5041918;28;20221;-73
2021/07/24 08:38:59;;;;;;;10.63;8.18;;;;;;;;;;5034424;28;20540;-73
2021/07/24 08:42:03;;;;;;;14.27;8.27;;;;;;;;;;5043602;28;20227;-73
2021/07/24 08:45:10;;;;;;;13.05;8.13;;;;;;;;;;5054411;28;20185;-73
2021/07/24 08:48:14;;;;;;;15.27;10.18;;;;;;;;;;5053292;28;20191;-73
2021/07/24 08:51:20;;;;;;;17.10;10.48;;;;;;;;;;5052260;28;20583;-73
2021/07/24 08:54:25;;;;;;;13.23;9.02;;;;;;;;;;5046485;28;20193;-73
2021/07/24 08:57:34;;;;;;;14.88;8.55;;;;;;;;;;5038619;28;20253;-73
2021/07/24 09:00:38;;;;;;;13.48;8.93;;;;;;;;;;5022185;28;20186;-73
2021/07/24 09:03:42;;;;;;;13.50;9.25;;;;;;;;;;5050250;28;20194;-73
2021/07/24 09:06:50;;;;;;;12.73;8.52;;;;;;;;;;5053076;28;20187;-73
2021/07/24 09:09:55;;;;;;;11.60;8.93;;;;;;;;;;5052190;28;20193;-73
2021/07/24 09:12:59;;;;;;;11.38;8.68;;;;;;;;;;5050912;28;20217;-73
2021/07/24 09:16:06;;;;;;;10.57;9.15;;;;;;;;;;5053754;28;20211;-75
2021/07/24 09:19:11;;;;;;;11.52;9.02;;;;;;;;;;5064329;28;20183;-74
2021/07/24 09:22:25;;;;;;;13.13;8.95;;;;;;;;;;5044861;28;20226;-74
2021/07/24 09:25:29;;;;;;;11.60;9.52;;;;;;;;;;5052957;28;20177;-75
2021/07/24 09:28:34;;;;;;;11.90;9.43;;;;;;;;;;5053331;28;20178;-75
2021/07/24 09:31:39;;;;;;;15.88;9.02;;;;;;;;;;5052633;28;20221;-75
2021/07/24 09:34:45;;;;;;;13.50;9.25;;;;;;;;;;5032764;28;20211;-74
2021/07/24 09:37:50;;;;;;;12.40;9.82;;;;;;;;;;5048865;28;20215;-74
2021/07/24 09:40:56;;;;;;;17.88;9.68;;;;;;;;;;5046967;28;20667;-74
2021/07/24 09:44:00;;;;;;;17.23;10.40;;;;;;;;;;5043731;28;20193;-75
2021/07/24 09:47:05;;;;;;;17.00;9.32;;;;;;;;;;5021254;28;20189;-75
2021/07/24 09:50:12;;;;;;;14.10;9.13;;;;;;;;;;5032889;28;20190;-75
2021/07/24 09:53:33;;;;;;;12.75;9.70;;;;;;;;;;5050985;28;20221;-74
2021/07/24 09:56:40;;;;;;;14.82;9.68;;;;;;;;;;5052584;28;20207;-75
2021/07/24 09:59:45;;;;;;;15.27;9.43;;;;;;;;;;5052237;28;20176;-75
2021/07/24 10:03:10;;;;;;;13.40;9.50;;;;;;;;;;5041873;28;20246;-74
2021/07/24 10:06:16;;;;;;;9.98;8.88;;;;;;;;;;5033451;28;20189;-75
2021/07/24 10:09:25;;;;;;;15.80;9.13;;;;;;;;;;5033484;28;20534;-75
2021/07/24 10:12:29;;;;;;;11.13;8.85;;;;;;;;;;5032308;28;20221;-75
2021/07/24 10:15:44;;;;;;;12.93;8.80;;;;;;;;;;5045189;28;20204;-74
2021/07/24 10:18:48;;;;;;;42.85;10.48;;;;;;;;;;5050657;28;20503;-73
2021/07/24 10:21:54;;;;;;;12.18;9.60;;;;;;;;;;5032940;28;20236;-74
2021/07/24 10:24:59;;;;;;;13.60;9.88;;;;;;;;;;5034781;28;20191;-73
2021/07/24 10:28:04;;;;;;;11.18;9.90;;;;;;;;;;5048956;28;20187;-74
2021/07/24 10:31:15;;;;;;;15.60;9.35;;;;;;;;;;5032131;28;20510;-74
2021/07/24 10:34:26;;;;;;;11.32;9.27;;;;;;;;;;5035249;28;20187;-74
2021/07/24 10:37:38;;;;;;;13.90;9.82;;;;;;;;;;5052519;28;20214;-74
2021/07/24 10:40:42;;;;;;;11.35;10.15;;;;;;;;;;5048917;28;20202;-74
2021/07/24 10:44:00;;;;;;;10.55;8.93;;;;;;;;;;5036817;28;20209;-75
2021/07/24 10:47:08;;;;;;;14.88;9.00;;;;;;;;;;5038491;28;20647;-74
2021/07/24 10:50:12;;;;;;;10.13;9.13;;;;;;;;;;5051991;28;20187;-74
2021/07/24 10:53:16;;;;;;;14.80;10.07;;;;;;;;;;5071597;28;20220;-74
2021/07/24 10:56:40;;;;;;;13.95;9.73;;;;;;;;;;5072437;28;20231;-74
2021/07/24 10:59:44;;;;;;;16.88;9.88;;;;;;;;;;5051416;28;20202;-74
2021/07/24 11:02:50;;;;;;;14.95;10.13;;;;;;;;;;5051057;28;20712;-74
2021/07/24 11:05:55;;;;;;;18.00;9.65;;;;;;;;;;5052674;28;20263;-74
2021/07/24 11:09:10;;;;;;;11.40;9.40;;;;;;;;;;5040189;28;20515;-74
2021/07/24 11:12:15;;;;;;;12.48;8.68;;;;;;;;;;5052442;28;20217;-74
2021/07/24 11:15:39;;;;;;;10.35;9.05;;;;;;;;;;5050306;28;20193;-75
2021/07/24 11:19:16;;;;;;;10.60;8.95;;;;;;;;;;5051619;28;20645;-74
2021/07/24 11:22:22;;;;;;;12.60;8.65;;;;;;;;;;5052265;28;20227;-74
2021/07/24 11:25:32;;;;;;;11.50;8.93;;;;;;;;;;5045246;28;20184;-74
2021/07/24 11:28:45;;;;;;;12.88;8.88;;;;;;;;;;5031184;28;20184;-74
2021/07/24 11:31:51;;;;;;;13.48;9.20;;;;;;;;;;5032372;28;20701;-75
2021/07/24 11:35:07;;;;;;;9.65;8.57;;;;;;;;;;5042891;28;20194;-74
2021/07/24 11:38:22;;;;;;;12.98;9.10;;;;;;;;;;5048213;28;20694;-74
2021/07/24 11:41:32;;;;;;;12.05;9.25;;;;;;;;;;5051051;28;20562;-75
2021/07/24 11:44:37;;;;;;;20.27;9.45;;;;;;;;;;5046060;28;20195;-74
2021/07/24 11:47:41;;;;;;;11.55;9.10;;;;;;;;;;5034693;28;20196;-75
2021/07/24 11:50:48;;;;;;;13.10;8.93;;;;;;;;;;5023242;28;20198;-75
2021/07/24 11:53:52;;;;;;;12.13;10.13;;;;;;;;;;5043682;28;20211;-74
2021/07/24 11:56:57;;;;;;;11.20;9.50;;;;;;;;;;5054871;28;20708;-74
2021/07/24 12:00:01;;;;;;;16.17;10.00;;;;;;;;;;5053811;28;20192;-75
2021/07/24 12:03:15;;;;;;;11.95;9.63;;;;;;;;;;5046535;28;20226;-74
2021/07/24 12:06:18;;;;;;;10.82;8.77;;;;;;;;;;5040406;28;20191;-74
2021/07/24 12:09:24;;;;;;;14.20;9.48;;;;;;;;;;5037983;28;20526;-74
2021/07/24 12:12:28;;;;;;;10.27;9.13;;;;;;;;;;5039995;28;20226;-74
2021/07/24 12:15:54;;;;;;;16.05;10.50;;;;;;;;;;5036121;28;20188;-74
2021/07/24 12:18:58;;;;;;;13.18;9.70;;;;;;;;;;5045347;28;20201;-74
2021/07/24 12:22:18;;;;;;;12.27;9.90;;;;;;;;;;5034834;28;20215;-74
2021/07/24 12:25:24;;;;;;;14.60;10.38;;;;;;;;;;5051368;28;20193;-74
2021/07/24 12:28:29;;;;;;;12.65;9.50;;;;;;;;;;5044060;28;20188;-74
2021/07/24 12:31:41;;;;;;;15.85;9.18;;;;;;;;;;5034594;28;20218;-74
2021/07/24 12:34:46;;;;;;;15.48;9.75;;;;;;;;;;5034051;28;20176;-75
2021/07/24 12:38:02;;;;;;;12.75;9.90;;;;;;;;;;5033109;28;20232;-74
2021/07/24 12:41:06;;;;;;;12.02;9.63;;;;;;;;;;5036689;28;20663;-74
2021/07/24 12:44:10;;;;;;;13.27;10.20;;;;;;;;;;5050116;28;20189;-74
2021/07/24 12:47:15;;;;;;;13.63;10.50;;;;;;;;;;5039080;28;20204;-74
2021/07/24 12:50:20;;;;;;;13.93;10.30;;;;;;;;;;5054754;28;20184;-75
2021/07/24 12:53:30;;;;;;;13.07;9.35;;;;;;;;;;5043617;28;20224;-74
2021/07/24 12:56:34;;;;;;;11.95;10.13;;;;;;;;;;5042883;28;20215;-74
2021/07/24 12:59:38;;;;;;;10.75;9.68;;;;;;;;;;5053244;28;20258;-75
2021/07/24 13:02:42;;;;;;;11.52;9.13;;;;;;;;;;5037507;28;20218;-74
2021/07/24 13:05:46;;;;;;;12.73;9.70;;;;;;;;;;5033061;28;20192;-75
2021/07/24 13:08:50;;;;;;;14.40;10.55;;;;;;;;;;5033925;28;20639;-75
2021/07/24 13:11:55;;;;;;;14.48;9.32;;;;;;;;;;5034990;28;20229;-74
2021/07/24 13:14:59;;;;;;;12.82;9.85;;;;;;;;;;5037645;28;20186;-75
2021/07/24 13:18:03;;;;;;;12.50;9.75;;;;;;;;;;5048576;28;20218;-74
2021/07/24 13:21:07;;;;;;;11.15;10.05;;;;;;;;;;5053873;28;20180;-75
2021/07/24 13:24:11;;;;;;;14.45;10.68;;;;;;;;;;5053957;28;20184;-75
2021/07/24 13:30:38;;;;;;;10.88;9.32;;;;;;;;;;5052489;28;20638;-74
2021/07/24 13:33:43;;;;;;;21.40;10.07;;;;;;;;;;5033612;28;20632;-74
2021/07/24 13:36:47;;;;;;;13.02;10.25;;;;;;;;;;5040313;28;20221;-75
2021/07/24 13:39:51;;;;;;;13.65;9.90;;;;;;;;;;5070493;22;20328;-71
2021/07/24 13:43:00;;;;;;;13.23;8.60;;;;;;;;;;5058163;28;20831;-71
2021/07/24 13:46:04;;;;;;;15.43;10.05;;;;;;;;;;5020622;28;20528;-71
2021/07/24 13:49:08;;;;;;;11.32;9.70;;;;;;;;;;5034689;28;20213;-70
2021/07/24 13:52:12;;;;;;;12.93;9.80;;;;;;;;;;5013326;28;20220;-71
2021/07/24 13:55:17;;;;;;;10.30;9.18;;;;;;;;;;5021180;28;20544;-71
2021/07/24 13:58:21;;;;;;;12.55;9.25;;;;;;;;;;5020783;28;20200;-71
2021/07/24 14:01:26;;;;;;;10.98;8.90;;;;;;;;;;5046503;28;20203;-70
2021/07/24 14:04:30;;;;;;;12.38;9.95;;;;;;;;;;5033264;28;20179;-71
2021/07/24 14:07:36;;;;;;;10.38;9.32;;;;;;;;;;5034835;28;20523;-70
2021/07/24 14:10:40;;;;;;;12.27;9.52;;;;;;;;;;5050096;28;20646;-70
2021/07/24 14:13:44;;;;;;;13.20;9.15;;;;;;;;;;5053054;28;20194;-71
2021/07/24 14:16:49;;;;;;;15.02;9.30;;;;;;;;;;5052688;28;20214;-70
2021/07/24 14:19:53;;;;;;;9.82;8.82;;;;;;;;;;5051467;28;20195;-70
2021/07/24 14:22:57;;;;;;;14.25;9.00;;;;;;;;;;5024941;28;20223;-71
2021/07/24 14:26:03;;;;;;;13.73;9.50;;;;;;;;;;5044174;28;20195;-70
2021/07/24 14:29:07;;;;;;;15.13;9.27;;;;;;;;;;5038241;28;20194;-71
2021/07/24 14:32:10;;;;;;;13.48;8.50;;;;;;;;;;5025745;28;20219;-70
2021/07/24 14:35:15;;;;;;;12.93;10.18;;;;;;;;;;5037153;28;20203;-71
2021/07/24 14:38:19;;;;;;;13.63;11.35;;;;;;;;;;5034888;28;20707;-70
2021/07/24 14:41:24;;;;;;;13.10;10.90;;;;;;;;;;5036696;28;20210;-71
2021/07/24 14:44:27;;;;;;;17.52;10.85;;;;;;;;;;5037048;28;20221;-70
2021/07/24 14:47:31;;;;;;;22.33;11.45;;;;;;;;;;5041072;28;20200;-73
2021/07/24 14:50:37;;;;;;;19.40;12.10;;;;;;;;;;5024621;28;20186;-71
2021/07/24 14:53:41;;;;;;;15.07;12.40;;;;;;;;;;5039060;28;20215;-71
2021/07/24 14:56:45;;;;;;;22.50;13.37;;;;;;;;;;5043322;28;20220;-73
2021/07/24 14:59:49;;;;;;;18.13;13.07;;;;;;;;;;5036503;28;20202;-72
2021/07/24 15:02:54;;;;;;;15.60;12.63;;;;;;;;;;5035517;28;20218;-71
2021/07/24 15:05:58;;;;;;;15.77;13.60;;;;;;;;;;5039169;28;20198;-71
2021/07/24 15:09:02;;;;;;;17.57;13.17;;;;;;;;;;5025291;28;20195;-72
2021/07/24 15:12:06;;;;;;;20.83;13.60;;;;;;;;;;5035925;28;20244;-72
2021/07/24 15:15:11;;;;;;;20.60;14.57;;;;;;;;;;5036007;28;20198;-72
2021/07/24 15:18:15;;;;;;;19.40;13.40;;;;;;;;;;5016901;28;20212;-71
2021/07/24 15:21:20;;;;;;;17.07;13.40;;;;;;;;;;5048035;28;20214;-72
2021/07/24 15:24:25;;;;;;;15.73;13.10;;;;;;;;;;5032492;28;20638;-72
2021/07/24 15:27:29;;;;;;;15.37;13.47;;;;;;;;;;5035180;28;20736;-72
2021/07/24 15:30:33;;;;;;;18.87;13.67;;;;;;;;;;5040739;28;20577;-72
2021/07/24 15:33:39;;;;;;;16.90;13.53;;;;;;;;;;5034639;28;20205;-72
2021/07/24 15:36:43;;;;;;;15.03;12.93;;;;;;;;;;5033312;28;20182;-73
2021/07/24 15:39:48;;;;;;;18.77;13.87;;;;;;;;;;5026057;28;20224;-72
2021/07/24 15:42:52;;;;;;;17.93;13.57;;;;;;;;;;5050919;28;20225;-72
2021/07/24 15:45:56;;;;;;;16.10;14.37;;;;;;;;;;5048160;28;20199;-72
2021/07/24 15:49:00;;;;;;;21.30;14.37;;;;;;;;;;5045702;28;20559;-72
2021/07/24 15:52:06;;;;;;;17.63;12.73;;;;;;;;;;5050861;28;20220;-72
2021/07/24 15:55:11;;;;;;;18.07;13.73;;;;;;;;;;5051632;28;20213;-73
2021/07/24 15:58:15;;;;;;;17.67;12.43;;;;;;;;;;5044339;28;20215;-72
2021/07/24 16:01:20;;;;;;;15.73;12.77;;;;;;;;;;5050931;28;20206;-72
2021/07/24 16:04:26;;;;;;;21.57;12.90;;;;;;;;;;5054715;28;20188;-72
2021/07/24 16:07:30;;;;;;;19.00;14.10;;;;;;;;;;5055186;28;20193;-72
2021/07/24 16:10:38;;;;;;;22.07;13.73;;;;;;;;;;5054438;28;20195;-73
2021/07/24 16:13:42;;;;;;;15.40;13.43;;;;;;;;;;5054927;28;20657;-72
2021/07/24 16:16:46;;;;;;;14.93;13.27;;;;;;;;;;5054054;28;20247;-73
2021/07/24 16:19:50;;;;;;;18.33;13.33;;;;;;;;;;5054831;28;20284;-72
2021/07/24 16:22:54;;;;;;;19.20;14.73;;;;;;;;;;5053839;28;20222;-72
2021/07/24 16:25:58;;;;;;;19.10;14.83;;;;;;;;;;5054731;28;20180;-73
2021/07/24 16:29:02;;;;;;;19.03;15.20;;;;;;;;;;5054641;28;20183;-73
2021/07/24 16:32:07;;;;;;;22.13;16.10;;;;;;;;;;5054550;28;20214;-72
2021/07/24 16:35:11;;;;;;;20.17;14.30;;;;;;;;;;5055088;28;20205;-73
2021/07/24 16:38:15;;;;;;;23.30;16.23;;;;;;;;;;5053704;28;20213;-73
2021/07/24 16:41:19;;;;;;;19.70;15.93;;;;;;;;;;5054262;28;20594;-72
2021/07/24 16:44:23;;;;;;;23.23;16.40;;;;;;;;;;5054454;28;20177;-73
2021/07/24 16:47:29;;;;;;;20.07;15.67;;;;;;;;;;5054337;28;20642;-73
2021/07/24 16:50:33;;;;;;;19.00;15.40;;;;;;;;;;5053670;28;20217;-72
2021/07/24 16:53:41;;;;;;;20.30;14.83;;;;;;;;;;5051698;28;20551;-73
2021/07/24 16:56:44;;;;;;;19.00;15.83;;;;;;;;;;5044815;28;20197;-73
2021/07/24 16:59:49;;;;;;;25.40;16.23;;;;;;;;;;5034425;28;20196;-75
2021/07/24 17:02:53;;;;;;;18.67;12.03;;;;;;;;;;5034734;28;20235;-75
2021/07/24 17:05:57;;;;;;;18.50;11.13;;;;;;;;;;5046020;28;20562;-74
2021/07/24 17:09:01;;;;;;;17.53;11.03;;;;;;;;;;5052683;28;20193;-74
2021/07/24 17:12:06;;;;;;;14.23;10.97;;;;;;;;;;5052938;28;20226;-72
2021/07/24 17:15:10;;;;;;;14.00;11.33;;;;;;;;;;5045196;28;20212;-73
2021/07/24 17:18:14;;;;;;;13.77;10.50;;;;;;;;;;5051160;28;20200;-73
2021/07/24 17:21:20;;;;;;;14.90;10.90;;;;;;;;;;5053624;28;20550;-73
2021/07/24 17:24:24;;;;;;;15.80;10.90;;;;;;;;;;5041317;28;20203;-72
2021/07/24 17:27:28;;;;;;;14.37;11.03;;;;;;;;;;5032942;28;20531;-73
2021/07/24 17:30:33;;;;;;;17.87;11.60;;;;;;;;;;5033605;28;20192;-72
2021/07/24 17:33:38;;;;;;;18.77;13.27;;;;;;;;;;5022146;28;20191;-73
2021/07/24 17:36:42;;;;;;;16.13;12.50;;;;;;;;;;5049007;28;20207;-72
2021/07/24 17:39:46;;;;;;;17.60;12.40;;;;;;;;;;5049612;28;20202;-73
2021/07/24 17:42:50;;;;;;;20.67;12.73;;;;;;;;;;5030807;28;20742;-74
2021/07/24 17:45:55;;;;;;;14.97;12.83;;;;;;;;;;5038342;28;20556;-73
2021/07/24 17:48:59;;;;;;;15.90;13.33;;;;;;;;;;5040907;28;20203;-73
2021/07/24 17:52:03;;;;;;;16.63;13.60;;;;;;;;;;5041028;28;20219;-73
2021/07/24 17:55:08;;;;;;;15.00;13.37;;;;;;;;;;5030768;28;20184;-73
2021/07/24 17:58:12;;;;;;;16.93;13.53;;;;;;;;;;5049305;28;20216;-73
2021/07/24 18:01:16;;;;;;;22.53;15.87;;;;;;;;;;5043722;28;20199;-73
2021/07/24 18:04:21;;;;;;;21.60;15.43;;;;;;;;;;5048640;28;20187;-73
2021/07/24 18:07:25;;;;;;;20.20;15.00;;;;;;;;;;5030673;28;20204;-73
2021/07/24 18:10:29;;;;;;;19.10;16.07;;;;;;;;;;5014181;28;20192;-73
2021/07/24 18:13:42;;;;;;;21.40;17.33;;;;;;;;;;5013256;28;20311;-73
2021/07/24 18:16:46;;;;;;;23.20;17.50;;;;;;;;;;5033122;28;20195;-73
2021/07/24 18:19:50;;;;;;;21.57;17.33;;;;;;;;;;5033680;28;20200;-74